International Virtual Aviation Organisation

Russian Federation and Kazakhstan MCD

 

Карточка аэропорта ULMM

Внимание!
Информация на этой странице в стадии наполнения.
Если вы не увидели какой-то информации, или заметили неточность - пожалуйста сообщите нам!
Спасибо!
Команда RU-STAFF
Название аэропортаМурманск
Название аэропорта (англ.)Murmansk
Превышение262 ft. (79.9 m.)
Координаты68°46.902', 32°45.066'
Высота перехода900m
Эшелон переходаQFE>=753mm:FL050; QFE<753=>727:FL060; QFE<727:FL070
Коды ответчика3101-3117
Зона ОрВДМурманск РПИ (ULMM)
Данные METARULMM 282100Z 28006G12MPS 9999 DRSN BKN023 M05/M09 Q1000 R31/390054 NOSIG RMK QFE743
Проноз погоды (TAF)ULMM 281950Z 2821/2921 29006G13MPS 9999 DRSN BKN015 TEMPO 2821/2901 31010G17MPS 3100 -SHSN BLSN BKN015CB TEMPO 2901/2921 31008G14MPS 3100 -SHSN BLSN BKN011CB
NOTAMshow/hide NOTAM
AWOS   TABLE

Информация о ВПП

ВПП Длина ВПП (м.) Покрытие Курс ВПП Частота ILS
132500Асфальтобетон131110.3
312500Асфальтобетон311108.5

Диспетчерские позиции




Спутниковое изображение